Time;durP1;ratioP1;P1;durP2;ratioP2;P2;SDS_P1;SDS_P2;PMS_P1;PMS_P2;Temp;Humidity;BMP_temperature;BMP_pressure;BME280_temperature;BME280_humidity;BME280_pressure;Samples;Min_cycle;Max_cycle;Signal;HPM_P1;HPM_P2
2023/06/26 00:01:59;;;;;;;;;;;;;;;27.65;45.79;101178.50;5067498;28;20395;-72
2023/06/26 00:04:24;;;;;;;;;;;;;;;27.62;45.98;101185.25;5067613;28;20016;-72
2023/06/26 00:06:49;;;;;;;;;;;;;;;27.63;45.78;101184.19;5057110;28;19987;-73
2023/06/26 00:09:14;;;;;;;;;;;;;;;27.61;46.12;101175.41;5075480;28;20365;-72
2023/06/26 00:11:39;;;;;;;;;;;;;;;27.61;46.13;101171.81;5060638;28;20012;-72
2023/06/26 00:14:06;;;;;;;;;;;;;;;27.60;46.09;101181.91;5075521;28;19912;-72
2023/06/26 00:16:31;;;;;;;;;;;;;;;27.60;46.04;101172.88;5067229;28;19926;-72
2023/06/26 00:18:57;;;;;;;;;;;;;;;27.59;45.93;101174.78;5063103;28;19921;-73
2023/06/26 00:21:22;;;;;;;;;;;;;;;27.59;46.11;101171.19;5069785;28;20423;-72
2023/06/26 00:23:47;;;;;;;;;;;;;;;27.58;45.78;101164.06;5065333;28;19913;-72
2023/06/26 00:26:13;;;;;;;;;;;;;;;27.58;45.80;101164.06;5062033;28;19924;-73
2023/06/26 00:28:38;;;;;;;;;;;;;;;27.58;46.05;101164.06;5068387;28;20285;-72
2023/06/26 00:31:03;;;;;;;;;;;;;;;27.57;46.04;101159.66;5071855;28;19912;-73
2023/06/26 00:33:28;;;;;;;;;;;;;;;27.56;45.97;101149.78;5059037;28;19916;-72
2023/06/26 00:35:54;;;;;;;;;;;;;;;27.56;45.99;101144.31;5078366;28;19917;-72
2023/06/26 00:38:19;;;;;;;;;;;;;;;27.55;46.13;101139.94;5062809;28;20378;-72
2023/06/26 00:40:44;;;;;;;;;;;;;;;27.55;45.75;101138.03;5062534;28;19934;-72
2023/06/26 00:43:09;;;;;;;;;;;;;;;27.54;46.05;101130.91;5070188;28;19950;-72
2023/06/26 00:45:34;;;;;;;;;;;;;;;27.53;46.06;101133.88;5059888;28;19943;-72
2023/06/26 00:48:00;;;;;;;;;;;;;;;27.52;45.93;101127.53;5068191;28;19916;-72
2023/06/26 00:50:26;;;;;;;;;;;;;;;27.52;45.87;101127.53;5066655;28;20289;-72
2023/06/26 00:52:51;;;;;;;;;;;;;;;27.52;46.06;101130.28;5067730;28;19972;-72
2023/06/26 00:55:17;;;;;;;;;;;;;;;27.50;46.07;101120.63;5052815;28;19944;-72
2023/06/26 00:57:45;;;;;;;;;;;;;;;27.50;45.88;101129.66;5073196;28;20379;-72
2023/06/26 01:00:11;;;;;;;;;;;;;;;27.50;46.00;101121.47;5059542;28;19924;-72
2023/06/26 01:02:38;;;;;;;;;;;;;;;27.50;46.01;101120.63;5073018;28;19948;-72
2023/06/26 01:05:06;;;;;;;;;;;;;;;27.49;46.01;101113.50;5066303;28;19921;-73
2023/06/26 01:07:34;;;;;;;;;;;;;;;27.48;45.90;101111.81;5057020;28;19912;-72
2023/06/26 01:09:59;;;;;;;;;;;;;;;27.47;45.87;101110.97;5072038;28;19927;-73
2023/06/26 01:12:24;;;;;;;;;;;;;;;27.47;45.90;101110.97;5061257;28;19991;-72
2023/06/26 01:14:50;;;;;;;;;;;;;;;27.46;46.09;101109.31;5068609;28;20012;-72
2023/06/26 01:17:16;;;;;;;;;;;;;;;27.46;46.22;101109.31;5047596;28;20011;-72
2023/06/26 01:19:41;;;;;;;;;;;;;;;27.45;45.73;101107.66;5037494;28;19920;-72
2023/06/26 01:22:19;;;;;;;;;;;;;;;27.44;45.93;101118.78;5048511;28;19923;-72
2023/06/26 01:24:49;;;;;;;;;;;;;;;27.44;45.80;101111.41;5053495;28;19987;-72
2023/06/26 01:27:14;;;;;;;;;;;;;;;27.44;45.75;101113.31;5032910;28;19917;-73
2023/06/26 01:29:40;;;;;;;;;;;;;;;27.42;45.74;101113.53;5069465;28;20332;-72
2023/06/26 01:32:05;;;;;;;;;;;;;;;27.42;46.05;101117.09;5066454;28;19935;-72
2023/06/26 01:34:30;;;;;;;;;;;;;;;27.42;45.82;101110.81;5056961;28;20491;-72
2023/06/26 01:36:55;;;;;;;;;;;;;;;27.41;45.93;101118.19;5074653;28;19912;-72
2023/06/26 01:39:21;;;;;;;;;;;;;;;27.40;45.88;101111.03;5051165;28;19917;-72
2023/06/26 01:41:46;;;;;;;;;;;;;;;27.41;45.96;101100.97;5067463;28;19917;-72
2023/06/26 01:44:17;;;;;;;;;;;;;;;27.40;45.72;101102.84;5067658;28;19952;-72
2023/06/26 01:46:55;;;;;;;;;;;;;;;27.39;45.90;101100.31;5048523;28;19912;-73
2023/06/26 01:49:26;;;;;;;;;;;;;;;27.39;45.88;101111.25;5047398;28;19928;-72
2023/06/26 01:51:55;;;;;;;;;;;;;;;27.38;45.79;101109.59;5064000;28;19912;-72
2023/06/26 01:54:21;;;;;;;;;;;;;;;27.37;45.71;101106.03;5058886;28;19983;-72
2023/06/26 01:56:48;;;;;;;;;;;;;;;27.37;45.90;101111.47;5050459;28;20335;-72
2023/06/26 01:59:16;;;;;;;;;;;;;;;27.35;45.75;101105.38;5068288;28;19920;-72
2023/06/26 02:01:41;;;;;;;;;;;;;;;27.36;45.74;101111.72;5041445;28;19912;-72
2023/06/26 02:04:06;;;;;;;;;;;;;;;27.35;45.92;101113.56;5075680;28;19996;-72
2023/06/26 02:06:31;;;;;;;;;;;;;;;27.35;45.86;101113.56;5058647;28;19913;-72
2023/06/26 02:08:56;;;;;;;;;;;;;;;27.34;45.92;101117.38;5067583;28;20362;-72
2023/06/26 02:11:22;;;;;;;;;;;;;;;27.35;45.97;101120.94;5066884;28;19921;-72
2023/06/26 02:13:47;;;;;;;;;;;;;;;27.33;45.83;101118.44;5060072;28;19938;-72
2023/06/26 02:16:12;;;;;;;;;;;;;;;27.33;45.94;101128.53;5065324;28;19992;-72
2023/06/26 02:18:38;;;;;;;;;;;;;;;27.32;45.94;101130.41;5067297;28;19999;-72
2023/06/26 02:21:03;;;;;;;;;;;;;;;27.32;45.72;101126.84;5062732;28;19948;-72
2023/06/26 02:23:28;;;;;;;;;;;;;;;27.31;45.71;101138.81;5047061;28;19914;-72
2023/06/26 02:25:54;;;;;;;;;;;;;;;27.31;45.82;101131.44;5071330;28;19921;-73
2023/06/26 02:28:19;;;;;;;;;;;;;;;27.30;45.72;101132.53;5054471;28;20281;-72
2023/06/26 02:30:44;;;;;;;;;;;;;;;27.30;45.99;101139.88;5073103;28;20712;-73
2023/06/26 02:33:09;;;;;;;;;;;;;;;27.29;45.47;101128.13;5064562;28;19921;-72
2023/06/26 02:35:34;;;;;;;;;;;;;;;27.29;45.60;101127.28;5044720;28;19913;-72
2023/06/26 02:38:00;;;;;;;;;;;;;;;27.28;45.91;101126.44;5070616;28;19920;-72
2023/06/26 02:40:25;;;;;;;;;;;;;;;27.28;45.76;101128.34;5061396;28;19959;-72
2023/06/26 02:42:50;;;;;;;;;;;;;;;27.27;45.71;101123.91;5065430;28;19924;-72
2023/06/26 02:45:15;;;;;;;;;;;;;;;27.27;45.85;101138.44;5063772;28;19976;-72
2023/06/26 02:47:40;;;;;;;;;;;;;;;27.25;45.83;101135.06;5066651;28;19920;-72
2023/06/26 02:50:06;;;;;;;;;;;;;;;27.25;45.73;101136.97;5047286;28;20011;-72
2023/06/26 02:52:31;;;;;;;;;;;;;;;27.25;45.62;101136.97;5052450;28;20147;-72
2023/06/26 02:54:57;;;;;;;;;;;;;;;27.24;45.58;101140.75;5059188;28;19912;-73
2023/06/26 02:57:22;;;;;;;;;;;;;;;27.23;45.50;101137.19;5050942;28;19913;-72
2023/06/26 02:59:47;;;;;;;;;;;;;;;27.23;45.62;101136.34;5055714;28;19913;-72
2023/06/26 03:02:12;;;;;;;;;;;;;;;27.22;45.67;101132.78;5055243;28;19913;-72
2023/06/26 03:04:37;;;;;;;;;;;;;;;27.21;45.63;101136.56;5053747;28;19935;-72
2023/06/26 03:07:03;;;;;;;;;;;;;;;27.21;45.81;101141.19;5058250;28;19968;-73
2023/06/26 03:09:28;;;;;;;;;;;;;;;27.21;45.63;101152.09;5065146;28;19925;-72
2023/06/26 03:11:55;;;;;;;;;;;;;;;27.20;45.65;101151.28;5066524;28;20389;-72
2023/06/26 03:14:20;;;;;;;;;;;;;;;27.20;45.77;101155.91;5066247;28;20464;-72
2023/06/26 03:16:45;;;;;;;;;;;;;;;27.19;45.88;101157.81;5050177;28;19931;-72
2023/06/26 03:19:10;;;;;;;;;;;;;;;27.17;45.81;101163.47;5068718;28;19913;-72
2023/06/26 03:21:36;;;;;;;;;;;;;;;27.17;45.65;101157.16;5062127;28;19913;-72
2023/06/26 03:24:01;;;;;;;;;;;;;;;27.17;45.59;101159.91;5044942;28;19944;-72
2023/06/26 03:26:27;;;;;;;;;;;;;;;27.17;45.54;101170.81;5069640;28;19913;-72
2023/06/26 03:28:53;;;;;;;;;;;;;;;27.16;45.47;101174.59;5034140;28;19913;-72
2023/06/26 03:31:18;;;;;;;;;;;;;;;27.16;45.48;101169.16;5073864;28;19912;-72
2023/06/26 03:33:43;;;;;;;;;;;;;;;27.16;45.73;101160.97;5043882;28;19913;-72
2023/06/26 03:36:08;;;;;;;;;;;;;;;27.14;45.79;101163.91;5059982;28;19972;-72
2023/06/26 03:38:34;;;;;;;;;;;;;;;27.14;45.59;101163.06;5071953;28;19912;-72
2023/06/26 03:40:59;;;;;;;;;;;;;;;27.13;45.49;101156.75;5051862;28;19913;-72
2023/06/26 03:43:24;;;;;;;;;;;;;;;27.13;45.59;101162.22;5065493;28;20519;-73
2023/06/26 03:45:49;;;;;;;;;;;;;;;27.12;45.63;101162.44;5071491;28;19916;-73
2023/06/26 03:48:14;;;;;;;;;;;;;;;27.12;45.51;101163.28;5072708;28;20402;-72
2023/06/26 03:50:39;;;;;;;;;;;;;;;27.12;45.56;101167.91;5064534;28;20763;-72
2023/06/26 03:53:05;;;;;;;;;;;;;;;27.11;45.70;101167.06;5079868;28;19919;-72
2023/06/26 03:55:30;;;;;;;;;;;;;;;27.12;45.70;101165.16;5063928;28;19918;-72
2023/06/26 03:57:55;;;;;;;;;;;;;;;27.10;45.66;101168.13;5070572;28;19917;-72
2023/06/26 04:00:20;;;;;;;;;;;;;;;27.10;45.64;101170.88;5072598;28;19919;-72
2023/06/26 04:02:46;;;;;;;;;;;;;;;27.09;45.57;101174.63;5063946;28;19947;-73
2023/06/26 04:05:11;;;;;;;;;;;;;;;27.09;45.52;101185.53;5076333;28;19924;-72
2023/06/26 04:07:37;;;;;;;;;;;;;;;27.09;45.45;101187.41;5056966;28;19984;-72
2023/06/26 04:10:02;;;;;;;;;;;;;;;27.08;45.40;101183.84;5050979;28;20080;-72
2023/06/26 04:12:27;;;;;;;;;;;;;;;27.08;45.64;101185.72;5038038;28;20366;-72
2023/06/26 04:14:52;;;;;;;;;;;;;;;27.07;45.46;101184.06;5074076;28;20003;-72
2023/06/26 04:17:18;;;;;;;;;;;;;;;27.08;45.47;101196.66;5064203;28;19920;-72
2023/06/26 04:19:43;;;;;;;;;;;;;;;27.07;45.56;101181.34;5076339;28;19956;-72
2023/06/26 04:22:08;;;;;;;;;;;;;;;27.06;45.55;101196.00;5058717;28;19912;-72
2023/06/26 04:24:33;;;;;;;;;;;;;;;27.06;45.67;101196.00;5067375;28;19924;-72
2023/06/26 04:27:00;;;;;;;;;;;;;;;27.05;45.72;101208.81;5075482;28;21544;-73
2023/06/26 04:29:26;;;;;;;;;;;;;;;27.05;45.47;101208.00;5062365;28;19925;-72
2023/06/26 04:31:52;;;;;;;;;;;;;;;27.05;45.42;101205.25;5056733;28;19951;-73
2023/06/26 04:34:17;;;;;;;;;;;;;;;27.05;45.42;101205.25;5055960;28;19917;-72
2023/06/26 04:36:47;;;;;;;;;;;;;;;27.04;45.43;101204.44;5067774;28;19913;-72
2023/06/26 04:39:14;;;;;;;;;;;;;;;27.03;45.43;101202.75;5061947;28;19912;-72
2023/06/26 04:41:39;;;;;;;;;;;;;;;27.03;45.78;101207.38;5070498;28;20413;-72
2023/06/26 04:44:04;;;;;;;;;;;;;;;27.04;45.35;101217.25;5061638;28;19920;-72
2023/06/26 04:46:30;;;;;;;;;;;;;;;27.02;45.67;101222.94;5057847;28;19923;-73
2023/06/26 04:48:57;;;;;;;;;;;;;;;27.02;45.36;101227.56;5070705;28;19920;-72
2023/06/26 04:51:23;;;;;;;;;;;;;;;27.01;45.72;101229.41;5061803;28;19959;-72
2023/06/26 04:53:48;;;;;;;;;;;;;;;27.01;45.44;101231.31;5076669;28;19913;-73
2023/06/26 04:56:13;;;;;;;;;;;;;;;27.00;45.61;101238.66;5059534;28;19929;-72
2023/06/26 04:58:38;;;;;;;;;;;;;;;27.00;45.44;101238.66;5068874;28;19912;-72
2023/06/26 05:01:06;;;;;;;;;;;;;;;26.99;45.53;101225.25;5067529;28;19948;-72
2023/06/26 05:03:31;;;;;;;;;;;;;;;27.00;45.46;101229.63;5063307;28;19916;-72
2023/06/26 05:05:57;;;;;;;;;;;;;;;26.99;45.31;101237.00;5067261;28;20312;-72
2023/06/26 05:08:22;;;;;;;;;;;;;;;26.98;45.33;101240.78;5054221;28;19913;-73
2023/06/26 05:10:48;;;;;;;;;;;;;;;26.98;45.37;101234.50;5063380;28;19921;-73
2023/06/26 05:13:15;;;;;;;;;;;;;;;26.97;45.49;101241.81;5066917;28;19917;-73
2023/06/26 05:15:40;;;;;;;;;;;;;;;26.97;45.38;101241.81;5071482;28;19921;-73
2023/06/26 05:18:06;;;;;;;;;;;;;;;26.96;45.52;101248.31;5056958;28;19963;-73
2023/06/26 05:20:31;;;;;;;;;;;;;;;26.97;45.58;101254.63;5075065;28;20011;-73
2023/06/26 05:22:56;;;;;;;;;;;;;;;26.96;45.44;101251.06;5063462;28;19939;-74
2023/06/26 05:25:21;;;;;;;;;;;;;;;26.96;45.65;101264.69;5066420;28;19913;-73
2023/06/26 05:27:47;;;;;;;;;;;;;;;26.95;45.50;101257.56;5070143;28;19920;-73
2023/06/26 05:30:13;;;;;;;;;;;;;;;26.95;45.47;101265.75;5061001;28;19920;-73
2023/06/26 05:32:38;;;;;;;;;;;;;;;26.94;45.46;101275.00;5068927;28;19913;-74
2023/06/26 05:35:04;;;;;;;;;;;;;;;26.94;45.54;101268.72;5061808;28;20071;-72
2023/06/26 05:37:30;;;;;;;;;;;;;;;26.94;45.46;101274.16;5065871;28;19962;-73
2023/06/26 05:39:56;;;;;;;;;;;;;;;26.93;45.52;101276.03;5045228;28;19999;-73
2023/06/26 05:42:21;;;;;;;;;;;;;;;26.94;45.64;101276.91;5070534;28;19939;-73
2023/06/26 05:44:46;;;;;;;;;;;;;;;26.92;45.53;101277.94;5059026;28;19916;-73
2023/06/26 05:47:11;;;;;;;;;;;;;;;26.93;45.55;101286.94;5072415;28;19914;-73
2023/06/26 05:49:37;;;;;;;;;;;;;;;26.92;45.55;101282.56;5065847;28;19956;-72
2023/06/26 05:52:02;;;;;;;;;;;;;;;26.91;45.44;101294.53;5037115;28;19918;-73
2023/06/26 05:54:27;;;;;;;;;;;;;;;26.91;45.47;101295.34;5074085;28;20444;-73
2023/06/26 05:56:54;;;;;;;;;;;;;;;26.91;45.64;101294.53;5049556;28;19920;-73
2023/06/26 05:59:19;;;;;;;;;;;;;;;26.90;45.44;101307.34;5068702;28;20348;-73
2023/06/26 06:01:44;;;;;;;;;;;;;;;26.90;45.48;101315.50;5036805;28;20487;-73
2023/06/26 06:04:09;;;;;;;;;;;;;;;26.90;45.55;101318.25;5065959;28;19920;-73
2023/06/26 06:06:35;;;;;;;;;;;;;;;26.89;45.42;101323.94;5063986;28;20488;-73
2023/06/26 06:09:00;;;;;;;;;;;;;;;26.90;45.33;101331.06;5068153;28;19923;-73
2023/06/26 06:11:25;;;;;;;;;;;;;;;26.88;45.39;101328.50;5050691;28;19914;-73
2023/06/26 06:13:50;;;;;;;;;;;;;;;26.88;45.42;101339.44;5051865;28;19974;-72
2023/06/26 06:16:15;;;;;;;;;;;;;;;26.87;45.60;101343.22;5069096;28;19921;-72
2023/06/26 06:18:41;;;;;;;;;;;;;;;26.87;45.62;101343.22;5048973;28;19913;-72
2023/06/26 06:21:06;;;;;;;;;;;;;;;26.86;45.35;101341.53;5076756;28;19924;-72
2023/06/26 06:23:31;;;;;;;;;;;;;;;26.86;45.75;101346.16;5061365;28;19936;-72
2023/06/26 06:25:56;;;;;;;;;;;;;;;26.85;45.44;101356.25;5061644;28;20028;-73
2023/06/26 06:28:21;;;;;;;;;;;;;;;26.86;45.39;101365.28;5069535;28;19968;-72
2023/06/26 06:30:47;;;;;;;;;;;;;;;26.86;45.37;101365.28;5044223;28;19917;-73
2023/06/26 06:33:13;;;;;;;;;;;;;;;26.85;45.47;101378.06;5061866;28;19927;-72
2023/06/26 06:35:38;;;;;;;;;;;;;;;26.84;45.62;101376.38;5065187;28;19935;-72
2023/06/26 06:38:03;;;;;;;;;;;;;;;26.84;45.42;101376.38;5064761;28;19916;-73
2023/06/26 06:40:28;;;;;;;;;;;;;;;26.84;45.35;101376.38;5060217;28;19917;-72
2023/06/26 06:42:53;;;;;;;;;;;;;;;26.84;45.62;101383.72;5072447;28;19913;-72
2023/06/26 06:45:19;;;;;;;;;;;;;;;26.83;45.28;101385.63;5056672;28;19913;-72
2023/06/26 06:47:44;;;;;;;;;;;;;;;26.84;45.18;101394.63;5066733;28;19912;-72
2023/06/26 06:50:09;;;;;;;;;;;;;;;26.83;45.38;101398.41;5066267;28;19952;-73
2023/06/26 06:52:35;;;;;;;;;;;;;;;26.82;45.30;101392.13;5049507;28;20420;-72
2023/06/26 06:55:05;;;;;;;;;;;;;;;26.37;45.56;101323.66;5073106;28;20244;-72
2023/06/26 06:57:30;;;;;;;;;;;;;;;26.82;45.22;101394.84;5060705;28;19913;-72
2023/06/26 06:59:55;;;;;;;;;;;;;;;26.82;45.34;101397.59;5045400;28;19939;-72
2023/06/26 07:02:20;;;;;;;;;;;;;;;26.82;45.37;101399.47;5064416;28;19919;-73
2023/06/26 07:04:46;;;;;;;;;;;;;;;26.81;45.46;101404.09;5048425;28;19914;-72
2023/06/26 07:07:13;;;;;;;;;;;;;;;26.81;45.26;101416.91;5060587;28;20055;-73
2023/06/26 07:09:38;;;;;;;;;;;;;;;26.80;45.25;101421.50;5037890;28;20007;-72
2023/06/26 07:12:04;;;;;;;;;;;;;;;26.80;45.42;101418.75;5058744;28;19917;-72
2023/06/26 07:14:29;;;;;;;;;;;;;;;26.81;45.33;101425.09;5065509;28;19944;-72
2023/06/26 07:16:54;;;;;;;;;;;;;;;26.80;45.36;101426.94;5067746;28;19931;-72
2023/06/26 07:19:19;;;;;;;;;;;;;;;26.80;45.42;101429.69;5055121;28;20052;-72
2023/06/26 07:21:46;;;;;;;;;;;;;;;26.79;45.29;101433.47;5070968;28;19917;-72
2023/06/26 07:24:11;;;;;;;;;;;;;;;26.80;45.26;101434.28;5060371;28;19968;-72
2023/06/26 07:26:36;;;;;;;;;;;;;;;26.80;45.29;101434.28;5061472;28;19924;-73
2023/06/26 07:29:01;;;;;;;;;;;;;;;26.78;45.51;101428.22;5067718;28;19913;-73
2023/06/26 07:31:27;;;;;;;;;;;;;;;26.79;45.27;101438.09;5064160;28;19913;-72
2023/06/26 07:33:52;;;;;;;;;;;;;;;26.79;45.39;101447.09;5059877;28;19958;-72
2023/06/26 07:36:17;;;;;;;;;;;;;;;26.79;45.24;101446.25;5049019;28;19920;-72
2023/06/26 07:38:42;;;;;;;;;;;;;;;26.79;45.24;101459.91;5063761;28;19920;-74
2023/06/26 07:41:07;;;;;;;;;;;;;;;26.78;45.18;101459.06;5036392;28;19984;-72
2023/06/26 07:43:33;;;;;;;;;;;;;;;26.79;45.43;101462.63;5058490;28;19924;-71
2023/06/26 07:46:01;;;;;;;;;;;;;;;26.78;45.19;101464.53;5056493;28;19920;-72
2023/06/26 07:48:26;;;;;;;;;;;;;;;26.78;45.21;101460.97;5067613;28;19918;-72
2023/06/26 07:50:51;;;;;;;;;;;;;;;26.78;45.13;101467.25;5064147;28;19984;-72
2023/06/26 07:53:16;;;;;;;;;;;;;;;26.78;45.37;101463.69;5059699;28;19985;-72
2023/06/26 07:55:42;;;;;;;;;;;;;;;26.79;45.62;101468.09;5066870;28;19952;-72
2023/06/26 07:58:07;;;;;;;;;;;;;;;26.78;45.43;101478.16;5061752;28;19920;-72
2023/06/26 08:00:32;;;;;;;;;;;;;;;26.78;45.47;101466.41;5060994;28;19935;-72
2023/06/26 08:03:00;;;;;;;;;;;;;;;26.78;45.23;101461.81;5063920;28;20385;-72
2023/06/26 08:05:25;;;;;;;;;;;;;;;26.78;45.36;101477.34;5067307;28;19984;-72
2023/06/26 08:07:50;;;;;;;;;;;;;;;26.78;45.21;101477.34;5055114;28;19917;-72
2023/06/26 08:10:16;;;;;;;;;;;;;;;26.77;45.15;101475.66;5071517;28;19917;-73
2023/06/26 08:12:42;;;;;;;;;;;;;;;26.78;45.12;101488.25;5062144;28;19912;-72
2023/06/26 08:15:08;;;;;;;;;;;;;;;26.77;45.07;101484.69;5065423;28;20382;-72
2023/06/26 08:17:34;;;;;;;;;;;;;;;26.78;45.38;101488.25;5065134;28;19921;-72
2023/06/26 08:19:59;;;;;;;;;;;;;;;26.77;45.27;101495.59;5056492;28;19917;-72
2023/06/26 08:22:24;;;;;;;;;;;;;;;26.77;45.44;101489.28;5067842;28;19916;-72
2023/06/26 08:24:49;;;;;;;;;;;;;;;26.78;44.96;101499.16;5061521;28;19923;-73
2023/06/26 08:27:14;;;;;;;;;;;;;;;26.77;45.00;101486.56;5066439;28;19920;-73
2023/06/26 08:29:40;;;;;;;;;;;;;;;26.77;45.00;101489.28;5067311;28;19921;-73
2023/06/26 08:32:05;;;;;;;;;;;;;;;26.77;44.94;101486.56;5070560;28;19973;-73
2023/06/26 08:34:30;;;;;;;;;;;;;;;26.77;45.04;101492.88;5058604;28;19921;-73
2023/06/26 08:36:55;;;;;;;;;;;;;;;26.78;45.21;101493.69;5071052;28;19992;-73
2023/06/26 08:39:20;;;;;;;;;;;;;;;26.78;45.11;101499.16;5066721;28;19939;-73
2023/06/26 08:41:46;;;;;;;;;;;;;;;26.78;45.04;101501.88;5061767;28;19966;-73
2023/06/26 08:44:11;;;;;;;;;;;;;;;26.77;45.00;101511.13;5072915;28;19912;-72
2023/06/26 08:46:36;;;;;;;;;;;;;;;26.78;45.23;101512.78;5059172;28;19920;-72
2023/06/26 08:49:05;;;;;;;;;;;;;;;26.78;45.01;101515.53;5069834;28;20003;-73
2023/06/26 08:51:31;;;;;;;;;;;;;;;26.77;45.19;101514.69;5036701;28;19917;-73
2023/06/26 08:53:56;;;;;;;;;;;;;;;26.77;45.07;101520.16;5047498;28;19913;-73
2023/06/26 08:56:21;;;;;;;;;;;;;;;26.78;44.98;101520.97;5067731;28;19920;-72
2023/06/26 08:58:47;;;;;;;;;;;;;;;26.77;44.96;101511.13;5067440;28;19913;-72
2023/06/26 09:01:12;;;;;;;;;;;;;;;26.77;45.02;101511.13;5061198;28;19927;-72
2023/06/26 09:03:37;;;;;;;;;;;;;;;26.77;45.14;101522.03;5066472;28;19954;-72
2023/06/26 09:06:03;;;;;;;;;;;;;;;26.77;44.98;101522.88;5069309;28;19920;-72
2023/06/26 09:08:28;;;;;;;;;;;;;;;26.78;44.92;101529.16;5056952;28;19912;-73
2023/06/26 09:10:53;;;;;;;;;;;;;;;26.76;44.91;101521.19;5059786;28;19983;-72
2023/06/26 09:13:18;;;;;;;;;;;;;;;26.77;44.86;101525.59;5043006;28;20329;-73
2023/06/26 09:15:44;;;;;;;;;;;;;;;26.77;45.16;101533.78;5046819;28;20435;-72
2023/06/26 09:18:09;;;;;;;;;;;;;;;26.77;45.09;101530.22;5069442;28;19920;-72
2023/06/26 09:20:34;;;;;;;;;;;;;;;26.77;45.09;101522.88;5061877;28;19919;-72
2023/06/26 09:22:59;;;;;;;;;;;;;;;26.76;45.16;101518.47;5065890;28;19944;-72
2023/06/26 09:25:25;;;;;;;;;;;;;;;26.77;44.96;101533.78;5065334;28;19951;-72
2023/06/26 09:27:50;;;;;;;;;;;;;;;26.77;44.89;101520.16;5064873;28;19936;-73
2023/06/26 09:30:18;;;;;;;;;;;;;;;26.77;45.09;101528.34;5063604;28;20358;-72
2023/06/26 09:32:44;;;;;;;;;;;;;;;26.78;45.19;101530.00;5053959;28;19913;-72
2023/06/26 09:35:09;;;;;;;;;;;;;;;26.78;44.78;101540.06;5055929;28;19940;-73
2023/06/26 09:37:34;;;;;;;;;;;;;;;26.78;44.93;101538.19;5040387;28;19919;-72
2023/06/26 09:39:59;;;;;;;;;;;;;;;26.79;44.78;101547.22;5064962;28;19972;-73
2023/06/26 09:42:25;;;;;;;;;;;;;;;26.78;44.79;101537.34;5057969;28;19920;-72
2023/06/26 09:44:51;;;;;;;;;;;;;;;26.79;44.85;101547.22;5073067;28;19923;-73
2023/06/26 09:47:16;;;;;;;;;;;;;;;26.78;44.83;101546.38;5059929;28;19917;-72
2023/06/26 09:49:44;;;;;;;;;;;;;;;26.79;44.83;101550.78;5067099;28;19921;-72
2023/06/26 09:52:10;;;;;;;;;;;;;;;26.78;44.52;101560.00;5046403;28;19913;-72
2023/06/26 09:54:36;;;;;;;;;;;;;;;26.79;44.70;101556.22;5048174;28;19920;-72
2023/06/26 09:57:11;;;;;;;;;;;;;;;26.79;44.63;101566.31;5061026;28;19928;-72
2023/06/26 09:59:36;;;;;;;;;;;;;;;26.79;44.59;101550.78;5051955;28;19917;-73
2023/06/26 10:02:01;;;;;;;;;;;;;;;26.79;44.82;101549.94;5058574;28;19924;-72
2023/06/26 10:04:27;;;;;;;;;;;;;;;26.80;44.46;101576.16;5068173;28;19912;-72
2023/06/26 10:06:53;;;;;;;;;;;;;;;26.80;44.53;101563.38;5066562;28;19921;-71
2023/06/26 10:09:19;;;;;;;;;;;;;;;26.80;44.64;101563.38;5036334;28;19999;-73
2023/06/26 10:11:49;;;;;;;;;;;;;;;26.80;44.43;101563.38;5059832;28;19913;-72
2023/06/26 10:14:14;;;;;;;;;;;;;;;26.80;44.47;101568.81;5040608;28;19913;-72
2023/06/26 10:16:40;;;;;;;;;;;;;;;26.81;44.65;101566.97;5049523;28;19921;-72
2023/06/26 10:19:06;;;;;;;;;;;;;;;26.81;44.47;101572.41;5047973;28;19913;-72
2023/06/26 10:21:32;;;;;;;;;;;;;;;26.81;44.43;101583.31;5063873;28;19917;-72
2023/06/26 10:23:57;;;;;;;;;;;;;;;26.82;44.40;101591.31;5034689;28;19913;-72
2023/06/26 10:26:23;;;;;;;;;;;;;;;26.82;44.46;101595.91;5048571;28;19912;-72
2023/06/26 10:28:51;;;;;;;;;;;;;;;26.82;44.45;101601.38;5050864;28;19917;-72
2023/06/26 10:31:17;;;;;;;;;;;;;;;26.83;44.39;101597.59;5047467;28;20346;-73
2023/06/26 10:33:42;;;;;;;;;;;;;;;26.84;44.42;101610.19;5051806;28;19912;-73
2023/06/26 10:36:18;;;;;;;;;;;;;;;26.83;44.44;101603.88;5053229;28;19939;-72
2023/06/26 10:38:56;;;;;;;;;;;;;;;26.83;44.06;101614.81;5051019;28;19935;-73
2023/06/26 10:41:22;;;;;;;;;;;;;;;26.85;44.05;101600.97;5057498;28;19917;-72
2023/06/26 10:43:51;;;;;;;;;;;;;;;26.85;44.14;101622.81;5048830;28;19912;-73
2023/06/26 10:46:17;;;;;;;;;;;;;;;26.87;44.21;101620.69;5064590;28;19916;-73
2023/06/26 10:49:01;;;;;;;;;;;;;;;26.87;43.91;101616.06;5060102;28;19952;-72
2023/06/26 10:51:27;;;;;;;;;;;;;;;26.88;44.19;101617.75;5047579;28;19923;-73
2023/06/26 10:53:56;;;;;;;;;;;;;;;26.89;44.25;101626.81;5052051;28;19917;-72
2023/06/26 10:56:21;;;;;;;;;;;;;;;26.89;44.19;101630.38;5033937;28;20319;-73
2023/06/26 10:58:47;;;;;;;;;;;;;;;26.90;44.06;101633.94;5035457;28;19912;-74
2023/06/26 11:01:15;;;;;;;;;;;;;;;26.90;44.02;101626.59;5066678;28;19913;-73
2023/06/26 11:03:41;;;;;;;;;;;;;;;26.92;43.92;101623.66;5050802;28;19947;-73
2023/06/26 11:06:27;;;;;;;;;;;;;;;26.92;44.10;101620.91;5072328;28;19917;-73
2023/06/26 11:08:55;;;;;;;;;;;;;;;26.93;43.86;101633.50;5055092;28;20503;-74
2023/06/26 11:11:20;;;;;;;;;;;;;;;26.94;43.91;101631.66;5068739;28;20007;-73
2023/06/26 11:13:46;;;;;;;;;;;;;;;26.94;44.18;101639.84;5062478;28;20420;-73
2023/06/26 11:16:12;;;;;;;;;;;;;;;26.93;43.90;101647.16;5046557;28;19921;-73
2023/06/26 11:18:37;;;;;;;;;;;;;;;26.92;44.10;101649.03;5046012;28;20373;-74
2023/06/26 11:21:06;;;;;;;;;;;;;;;26.95;43.99;101655.16;5064100;28;19916;-73
2023/06/26 11:23:32;;;;;;;;;;;;;;;26.95;44.08;101645.06;5057592;28;19917;-73
2023/06/26 11:25:57;;;;;;;;;;;;;;;26.96;44.17;101641.28;5048904;28;20357;-74
2023/06/26 11:28:22;;;;;;;;;;;;;;;26.98;43.95;101646.56;5048748;28;19921;-74
2023/06/26 11:30:47;;;;;;;;;;;;;;;27.00;44.02;101642.56;5055037;28;19924;-74
2023/06/26 11:33:12;;;;;;;;;;;;;;;27.02;43.99;101658.75;5060354;28;19913;-74
2023/06/26 11:35:38;;;;;;;;;;;;;;;27.03;44.13;101658.53;5058876;28;19917;-74
2023/06/26 11:38:04;;;;;;;;;;;;;;;27.05;43.94;101655.59;5034022;28;19912;-73
2023/06/26 11:40:31;;;;;;;;;;;;;;;27.07;44.16;101661.72;5066927;28;19912;-74
2023/06/26 11:43:03;;;;;;;;;;;;;;;27.06;44.03;101671.78;5062015;28;19948;-73
2023/06/26 11:45:29;;;;;;;;;;;;;;;27.08;43.81;101675.13;5062277;28;19913;-74
2023/06/26 11:47:55;;;;;;;;;;;;;;;27.09;44.05;101681.44;5044990;28;19912;-73
2023/06/26 11:50:20;;;;;;;;;;;;;;;27.09;43.96;101692.34;5062366;28;19924;-73
2023/06/26 11:52:45;;;;;;;;;;;;;;;27.10;43.72;101691.34;5063080;28;20310;-74
2023/06/26 11:55:10;;;;;;;;;;;;;;;27.12;43.77;101692.81;5070212;28;20338;-73
2023/06/26 11:57:36;;;;;;;;;;;;;;;27.15;43.67;101691.59;5035233;28;19920;-73
2023/06/26 12:00:11;;;;;;;;;;;;;;;27.16;43.94;101694.09;5056618;28;19920;-74
2023/06/26 12:02:36;;;;;;;;;;;;;;;27.17;43.94;101700.41;5064484;28;19941;-74
2023/06/26 12:05:02;;;;;;;;;;;;;;;27.18;43.99;101691.16;5048496;28;19916;-74
2023/06/26 12:07:27;;;;;;;;;;;;;;;27.18;44.00;101715.72;5071165;28;19920;-73
2023/06/26 12:09:53;;;;;;;;;;;;;;;27.20;43.89;101705.47;5060235;28;20468;-73
2023/06/26 12:12:18;;;;;;;;;;;;;;;27.21;43.67;101706.28;5068872;28;19927;-73
2023/06/26 12:14:43;;;;;;;;;;;;;;;27.24;43.64;101722.28;5067302;28;19913;-74
2023/06/26 12:17:10;;;;;;;;;;;;;;;27.26;43.73;101722.91;5068549;28;20084;-74
2023/06/26 12:19:36;;;;;;;;;;;;;;;27.28;43.70;101712.63;5066198;28;19980;-73
2023/06/26 12:22:05;;;;;;;;;;;;;;;27.28;43.83;101721.66;5074124;28;19944;-74
2023/06/26 12:24:30;;;;;;;;;;;;;;;27.30;43.77;101727.75;5059445;28;19972;-74
2023/06/26 12:26:58;;;;;;;;;;;;;;;27.30;43.53;101719.56;5073789;28;19935;-74
2023/06/26 12:29:33;;;;;;;;;;;;;;;27.31;43.69;101721.22;5067327;28;19921;-74